Time;durP1;ratioP1;P1;durP2;ratioP2;P2;SDS_P1;SDS_P2;PMS_P1;PMS_P2;Temp;Humidity;BMP_temperature;BMP_pressure;BME280_temperature;BME280_humidity;BME280_pressure;Samples;Min_cycle;Max_cycle;Signal;HPM_P1;HPM_P2
2022/10/01 00:01:11;;;;;;;11.70;7.65;;;;;;;18.30;100.00;100440.75;5070755;28;20031;-75
2022/10/01 00:03:37;;;;;;;16.30;8.80;;;;;;;17.87;100.00;100415.53;5070881;28;20563;-77
2022/10/01 00:06:16;;;;;;;11.10;8.00;;;;;;;18.26;100.00;100477.84;5069806;28;20119;-73
2022/10/01 00:08:47;;;;;;;10.38;7.50;;;;;;;18.19;100.00;100464.44;5069746;28;20043;-73
2022/10/01 00:11:22;;;;;;;11.45;7.70;;;;;;;17.76;100.00;100384.38;5086457;28;20422;-73
2022/10/01 00:13:48;;;;;;;11.27;7.82;;;;;;;18.22;100.00;100440.31;5069666;28;20040;-74
2022/10/01 00:16:16;;;;;;;11.13;7.78;;;;;;;17.82;100.00;100410.63;5069871;28;20033;-74
2022/10/01 00:18:44;;;;;;;14.38;8.18;;;;;;;18.00;100.00;100460.31;5086520;28;20483;-72
2022/10/01 00:21:13;;;;;;;10.48;7.38;;;;;;;17.99;100.00;100392.59;5069376;28;20101;-73
2022/10/01 00:23:38;;;;;;;11.07;7.45;;;;;;;18.04;100.00;100410.38;5070747;28;20048;-74
2022/10/01 00:26:14;;;;;;;10.55;6.45;;;;;;;17.92;100.00;100373.25;5074955;28;20089;-74
2022/10/01 00:28:41;;;;;;;11.20;7.07;;;;;;;18.26;100.00;100456.41;5073592;28;20028;-73
2022/10/01 00:31:08;;;;;;;13.25;6.93;;;;;;;17.72;100.00;100396.56;5073490;28;20048;-72
2022/10/01 00:33:35;;;;;;;9.60;6.65;;;;;;;17.98;100.00;100424.38;5074748;28;20475;-73
2022/10/01 00:36:00;;;;;;;11.80;6.85;;;;;;;17.94;100.00;100373.16;5073376;28;20086;-73
2022/10/01 00:38:28;;;;;;;8.65;6.45;;;;;;;18.31;100.00;100441.56;5073585;28;20028;-73
2022/10/01 00:40:54;;;;;;;10.63;6.35;;;;;;;18.54;100.00;100433.50;5073233;28;20075;-72
2022/10/01 00:43:25;;;;;;;10.55;6.80;;;;;;;18.27;100.00;100388.56;5074826;28;20025;-72
2022/10/01 00:45:54;;;;;;;11.55;6.38;;;;;;;18.10;100.00;100407.47;5074616;28;20035;-73
2022/10/01 00:48:22;;;;;;;10.20;6.43;;;;;;;18.32;100.00;100451.78;5074539;28;20521;-72
2022/10/01 00:50:49;;;;;;;13.10;6.53;;;;;;;18.47;100.00;100386.63;5074606;28;20081;-74
2022/10/01 00:53:18;;;;;;;10.07;6.57;;;;;;;18.57;100.00;100452.19;5073135;28;20051;-73
2022/10/01 00:55:50;;;;;;;12.98;7.13;;;;;;;18.44;100.00;100464.03;5073016;28;20029;-72
2022/10/01 00:58:17;;;;;;;8.75;6.10;;;;;;;18.56;100.00;100460.81;5074512;28;20142;-72
2022/10/01 01:00:43;;;;;;;12.18;6.65;;;;;;;17.80;100.00;100391.03;5073077;28;20064;-73
2022/10/01 01:03:10;;;;;;;10.18;6.90;;;;;;;17.80;100.00;100401.31;5073370;28;20032;-73
2022/10/01 01:05:36;;;;;;;11.07;6.60;;;;;;;17.96;100.00;100427.94;5073139;28;20124;-72
2022/10/01 01:08:02;;;;;;;8.45;6.43;;;;;;;17.88;100.00;100412.91;5073903;28;20110;-72
2022/10/01 01:10:49;;;;;;;9.70;6.75;;;;;;;18.20;100.00;100465.28;5074061;28;20112;-73
2022/10/01 01:13:33;;;;;;;11.48;6.93;;;;;;;17.64;100.00;100387.56;5072436;28;20021;-73
2022/10/01 01:16:07;;;;;;;10.27;7.18;;;;;;;18.11;100.00;100461.44;5073089;28;20475;-73
2022/10/01 01:18:35;;;;;;;12.30;7.47;;;;;;;18.01;100.00;100457.66;5072675;28;20086;-73
2022/10/01 01:21:27;;;;;;;10.57;7.38;;;;;;;17.91;100.00;100435.88;5073846;28;20085;-73
2022/10/01 01:23:55;;;;;;;10.23;7.57;;;;;;;17.98;100.00;100452.69;5071781;28;20491;-72
2022/10/01 01:26:24;;;;;;;10.65;8.48;;;;;;;17.91;100.00;100461.59;5073903;28;20060;-72
2022/10/01 01:28:56;;;;;;;13.38;9.75;;;;;;;17.71;100.00;100461.75;5073222;28;20036;-73
2022/10/01 01:31:29;;;;;;;12.27;9.32;;;;;;;17.30;100.00;100391.78;5074038;28;20020;-74
2022/10/01 01:33:57;;;;;;;14.38;10.35;;;;;;;17.31;100.00;100408.03;5073603;28;20028;-74
2022/10/01 01:36:30;;;;;;;15.55;10.45;;;;;;;17.29;100.00;100430.41;5072560;28;20025;-73
2022/10/01 01:39:02;;;;;;;14.27;10.15;;;;;;;17.07;100.00;100420.31;5073657;28;20037;-73
2022/10/01 01:41:33;;;;;;;14.77;11.73;;;;;;;16.82;100.00;100383.84;5073683;28;20060;-73
2022/10/01 01:44:01;;;;;;;19.17;12.52;;;;;;;16.83;100.00;100346.16;5072398;28;20024;-72
2022/10/01 01:46:32;;;;;;;15.68;12.32;;;;;;;17.17;100.00;100436.16;5073618;28;20047;-73
2022/10/01 01:49:03;;;;;;;14.87;10.80;;;;;;;17.01;100.00;100394.09;5073882;28;20090;-73
2022/10/01 01:51:44;;;;;;;15.65;10.05;;;;;;;17.01;100.00;100402.66;5073442;28;20357;-76
2022/10/01 01:54:11;;;;;;;12.27;9.25;;;;;;;16.88;100.00;100393.84;5073442;28;20028;-73
2022/10/01 01:56:36;;;;;;;10.05;8.43;;;;;;;17.21;100.00;100441.03;5072168;28;20044;-72
2022/10/01 01:59:02;;;;;;;12.48;8.30;;;;;;;16.59;100.00;100394.38;5073300;28;20032;-72
2022/10/01 02:01:40;;;;;;;13.27;9.20;;;;;;;16.63;100.00;100398.44;5071899;28;20135;-74
2022/10/01 02:04:18;;;;;;;16.80;10.40;;;;;;;16.85;100.00;100404.25;5072021;28;20032;-74
2022/10/01 02:07:15;;;;;;;15.68;11.00;;;;;;;17.13;100.00;100471.41;5072048;28;20028;-73
2022/10/01 02:10:02;;;;;;;11.60;9.65;;;;;;;17.70;100.00;100482.44;5047195;28;20043;-73
2022/10/01 02:13:03;;;;;;;13.70;9.10;;;;;;;17.22;100.00;100471.00;5089117;28;20040;-76
2022/10/01 02:15:47;;;;;;;12.52;9.02;;;;;;;17.50;100.00;100459.41;5061104;28;20076;-72
2022/10/01 02:18:22;;;;;;;10.95;8.18;;;;;;;16.87;100.00;100446.13;5071540;28;20120;-72
2022/10/01 02:20:51;;;;;;;14.93;8.43;;;;;;;16.97;100.00;100459.38;5072842;28;20530;-73
2022/10/01 02:23:39;;;;;;;9.73;8.35;;;;;;;17.07;100.00;100424.63;5072773;28;20031;-73
2022/10/01 02:26:11;;;;;;;10.45;8.00;;;;;;;16.85;100.00;100406.00;5072619;28;20051;-73
2022/10/01 02:28:40;;;;;;;13.82;8.40;;;;;;;17.08;100.00;100463.09;5072673;28;20040;-73
2022/10/01 02:31:08;;;;;;;10.00;8.55;;;;;;;16.39;100.00;100420.06;5072624;28;20570;-73
2022/10/01 02:33:35;;;;;;;11.98;8.23;;;;;;;16.29;100.00;100367.47;5071219;28;20043;-73
2022/10/01 02:36:03;;;;;;;11.02;8.48;;;;;;;16.07;100.00;100371.91;5072235;28;20047;-73
2022/10/01 02:38:31;;;;;;;12.65;7.78;;;;;;;16.68;100.00;100473.53;5072763;28;20039;-73
2022/10/01 02:41:01;;;;;;;12.18;8.40;;;;;;;16.50;100.00;100445.28;5073038;28;20029;-72
2022/10/01 02:43:37;;;;;;;10.07;8.30;;;;;;;16.45;100.00;100474.53;5072987;28;20025;-72
2022/10/01 02:46:14;;;;;;;11.90;8.35;;;;;;;16.09;100.00;100390.63;5070368;28;20124;-74
2022/10/01 02:48:40;;;;;;;9.70;8.02;;;;;;;16.40;100.00;100435.38;5072177;28;20067;-73
2022/10/01 02:51:14;;;;;;;10.50;8.38;;;;;;;16.97;100.00;100485.91;5072324;28;20056;-73
2022/10/01 02:53:46;;;;;;;11.63;8.30;;;;;;;16.92;100.00;100481.84;5072039;28;20028;-74
2022/10/01 02:56:13;;;;;;;12.00;7.75;;;;;;;16.56;100.00;100419.34;5072211;28;20055;-75
2022/10/01 02:58:40;;;;;;;12.27;8.25;;;;;;;16.56;100.00;100457.84;5072017;28;20036;-74
2022/10/01 03:01:06;;;;;;;10.57;8.10;;;;;;;16.57;100.00;100477.47;5071944;28;20035;-74
2022/10/01 03:03:31;;;;;;;13.23;8.25;;;;;;;16.29;100.00;100427.34;5070620;28;20377;-72
2022/10/01 03:05:57;;;;;;;10.38;8.43;;;;;;;16.97;100.00;100498.75;5071813;28;20028;-73
2022/10/01 03:08:22;;;;;;;9.70;8.18;;;;;;;16.15;100.00;100416.00;5070288;28;20574;-74
2022/10/01 03:10:49;;;;;;;9.88;8.20;;;;;;;16.49;100.00;100434.19;5069823;28;20025;-74
2022/10/01 03:13:14;;;;;;;10.02;8.95;;;;;;;16.91;100.00;100506.72;5071482;28;20435;-73
2022/10/01 03:15:40;;;;;;;10.57;8.30;;;;;;;16.99;100.00;100509.78;5070454;28;20032;-72
2022/10/01 03:18:05;;;;;;;12.68;8.68;;;;;;;16.40;100.00;100460.25;5071748;28;20017;-73
2022/10/01 03:20:30;;;;;;;13.52;9.70;;;;;;;16.60;100.00;100514.13;5071707;28;20471;-73
2022/10/01 03:22:56;;;;;;;14.05;10.07;;;;;;;17.02;100.00;100494.22;5071896;28;20025;-72
2022/10/01 03:25:21;;;;;;;13.55;9.35;;;;;;;17.65;100.00;100505.78;5070185;28;20044;-72
2022/10/01 03:27:47;;;;;;;15.50;10.40;;;;;;;16.30;100.00;100405.09;5060508;28;20039;-72
2022/10/01 03:30:12;;;;;;;16.83;9.43;;;;;;;16.73;100.00;100507.56;5051567;28;20510;-73
2022/10/01 03:32:38;;;;;;;12.70;8.40;;;;;;;16.99;100.00;100460.13;5064134;28;20067;-75
2022/10/01 03:35:04;;;;;;;10.27;8.43;;;;;;;16.60;100.00;100455.06;5069951;28;20120;-72
2022/10/01 03:37:29;;;;;;;13.40;8.63;;;;;;;16.40;100.00;100402.03;5071554;28;20029;-73
2022/10/01 03:39:54;;;;;;;11.40;8.82;;;;;;;16.97;100.00;100495.34;5070193;28;20551;-74
2022/10/01 03:42:20;;;;;;;12.23;8.30;;;;;;;16.90;100.00;100494.78;5070328;28;20028;-73
2022/10/01 03:44:46;;;;;;;15.30;10.23;;;;;;;16.73;100.00;100502.41;5070429;28;20032;-73
2022/10/01 03:47:12;;;;;;;15.68;9.75;;;;;;;16.69;100.00;100459.81;5069535;28;20025;-74
2022/10/01 03:49:37;;;;;;;14.25;10.75;;;;;;;16.76;100.00;100509.13;5071325;28;20035;-73
2022/10/01 03:52:04;;;;;;;17.02;10.50;;;;;;;16.40;100.00;100478.22;5071381;28;20029;-74
2022/10/01 03:54:30;;;;;;;13.18;9.70;;;;;;;16.32;100.00;100495.66;5070781;28;20605;-75
2022/10/01 03:56:56;;;;;;;13.90;9.80;;;;;;;16.14;100.00;100430.56;5083611;28;20513;-73
2022/10/01 03:59:21;;;;;;;11.90;9.40;;;;;;;16.48;100.00;100445.31;5070402;28;20028;-74
2022/10/01 04:01:47;;;;;;;14.57;9.35;;;;;;;16.27;100.00;100451.41;5069914;28;20389;-72
2022/10/01 04:04:13;;;;;;;16.00;9.82;;;;;;;16.09;100.00;100459.88;5069715;28;20110;-72
2022/10/01 04:06:39;;;;;;;15.13;9.77;;;;;;;16.35;100.00;100505.78;5070851;28;20036;-73
2022/10/01 04:09:04;;;;;;;14.55;9.60;;;;;;;16.10;100.00;100462.38;5069340;28;20507;-74
2022/10/01 04:11:30;;;;;;;13.18;9.45;;;;;;;16.25;100.00;100518.19;5069700;28;20028;-73
2022/10/01 04:13:56;;;;;;;15.80;9.70;;;;;;;16.12;100.00;100526.47;5071028;28;20058;-73
2022/10/01 04:16:23;;;;;;;14.27;10.30;;;;;;;16.12;100.00;100518.78;5071150;28;20024;-73
2022/10/01 04:18:49;;;;;;;15.32;10.40;;;;;;;16.36;100.00;100523.69;5070751;28;20490;-75
2022/10/01 04:21:14;;;;;;;13.15;10.00;;;;;;;16.20;100.00;100485.94;5069632;28;20182;-73
2022/10/01 04:23:40;;;;;;;13.18;10.10;;;;;;;16.29;100.00;100509.47;5069355;28;20475;-72
2022/10/01 04:26:06;;;;;;;16.15;10.40;;;;;;;15.79;100.00;100481.69;5070593;28;20483;-73
2022/10/01 04:28:31;;;;;;;12.23;10.45;;;;;;;15.80;100.00;100514.13;5069722;28;20055;-73
2022/10/01 04:33:41;;;;;;;15.93;10.10;;;;;;;16.28;100.00;100559.09;5070607;28;20063;-73
2022/10/01 04:36:06;;;;;;;12.45;9.93;;;;;;;16.36;100.00;100507.47;5070680;28;20475;-73
2022/10/01 04:38:32;;;;;;;14.35;10.88;;;;;;;15.76;100.00;100423.69;5070972;28;20016;-72
2022/10/01 04:40:57;;;;;;;16.60;10.65;;;;;;;16.33;100.00;100503.28;5068158;28;20034;-73
2022/10/01 04:43:23;;;;;;;15.80;11.50;;;;;;;16.39;100.00;100553.53;5065310;28;20029;-74
2022/10/01 04:45:48;;;;;;;15.73;9.95;;;;;;;16.72;100.00;100535.88;5069741;28;20092;-73
2022/10/01 04:48:14;;;;;;;16.45;9.82;;;;;;;16.62;100.00;100506.38;5070526;28;20067;-74
2022/10/01 04:50:39;;;;;;;14.55;10.00;;;;;;;16.57;100.00;100447.50;5068466;28;20442;-74
2022/10/01 04:53:05;;;;;;;18.30;10.25;;;;;;;16.74;100.00;100516.09;5070140;28;20031;-74
2022/10/01 04:55:30;;;;;;;14.13;9.82;;;;;;;18.78;100.00;100585.00;5069387;28;20062;-72
2022/10/01 04:57:56;;;;;;;16.02;10.18;;;;;;;19.74;100.00;100573.78;5070551;28;20040;-73
2022/10/01 05:00:25;;;;;;;15.25;9.25;;;;;;;19.46;100.00;100465.31;5070194;28;20486;-74
2022/10/01 05:02:52;;;;;;;18.65;11.43;;;;;;;20.42;100.00;100538.81;5069106;28;20036;-73
2022/10/01 05:05:19;;;;;;;16.77;11.30;;;;;;;20.44;100.00;100572.34;5070548;28;20032;-73
2022/10/01 05:07:45;;;;;;;15.95;11.25;;;;;;;20.80;100.00;100587.41;5070672;28;20035;-73
2022/10/01 05:10:18;;;;;;;16.83;11.05;;;;;;;20.59;100.00;100549.00;5072512;28;20021;-73
2022/10/01 05:12:45;;;;;;;13.27;9.73;;;;;;;20.87;100.00;100583.50;5089760;28;20016;-73
2022/10/01 05:15:11;;;;;;;15.43;9.90;;;;;;;21.11;100.00;100587.22;5073617;28;20054;-72
2022/10/01 05:17:36;;;;;;;17.00;9.88;;;;;;;20.23;100.00;100565.81;5073044;28;20078;-72
2022/10/01 05:20:04;;;;;;;14.52;9.88;;;;;;;19.48;100.00;100583.88;5072272;28;20484;-74
2022/10/01 05:22:30;;;;;;;12.88;9.70;;;;;;;19.05;100.00;100531.19;5073660;28;20040;-74
2022/10/01 05:24:58;;;;;;;14.23;9.23;;;;;;;18.70;100.00;100515.00;5072373;28;20045;-73
2022/10/01 05:27:27;;;;;;;15.80;8.55;;;;;;;19.24;100.00;100567.09;5073976;28;20474;-73
2022/10/01 05:29:53;;;;;;;11.98;8.82;;;;;;;18.71;100.00;100541.63;5073633;28;20153;-72
2022/10/01 05:32:18;;;;;;;12.68;8.40;;;;;;;18.88;100.00;100580.19;5070007;28;20111;-72
2022/10/01 05:34:44;;;;;;;14.95;8.27;;;;;;;18.08;100.00;100574.00;5073737;28;20025;-73
2022/10/01 05:37:10;;;;;;;12.60;8.32;;;;;;;18.61;100.00;100577.31;5073426;28;20474;-74
2022/10/01 05:39:36;;;;;;;11.90;8.13;;;;;;;18.33;100.00;100542.72;5073699;28;20025;-73
2022/10/01 05:42:02;;;;;;;12.52;7.90;;;;;;;18.13;100.00;100531.69;5073437;28;20468;-74
2022/10/01 05:44:36;;;;;;;12.13;7.97;;;;;;;18.59;100.00;100517.34;5073941;28;20066;-73
2022/10/01 05:47:05;;;;;;;15.60;7.38;;;;;;;19.52;100.00;100555.25;5071985;28;20020;-74
2022/10/01 05:49:32;;;;;;;17.77;8.32;;;;;;;19.82;100.00;100570.75;5073459;28;20086;-74
2022/10/01 05:51:59;;;;;;;13.48;8.23;;;;;;;19.78;100.00;100580.44;5071556;28;20032;-73
2022/10/01 05:54:24;;;;;;;13.90;7.63;;;;;;;19.97;100.00;100584.53;5073418;28;20024;-72
2022/10/01 05:56:50;;;;;;;15.88;7.70;;;;;;;19.94;100.00;100544.25;5073054;28;20036;-73
2022/10/01 05:59:15;;;;;;;14.35;7.78;;;;;;;20.15;100.00;100579.16;5072985;28;20414;-72
2022/10/01 06:01:41;;;;;;;14.93;8.50;;;;;;;20.45;100.00;100522.31;5072412;28;20029;-74
2022/10/01 06:04:09;;;;;;;19.00;10.93;;;;;;;20.97;100.00;100579.44;5073351;28;20119;-74
2022/10/01 06:06:34;;;;;;;16.20;7.75;;;;;;;20.62;100.00;100573.81;5073179;28;20162;-76
2022/10/01 06:08:59;;;;;;;13.13;7.72;;;;;;;21.16;100.00;100577.41;5071920;28;20127;-74
2022/10/01 06:11:25;;;;;;;18.67;10.57;;;;;;;20.93;100.00;100515.91;5088625;28;20059;-76
2022/10/01 06:13:51;;;;;;;19.00;9.43;;;;;;;21.30;100.00;100578.22;5073311;28;20037;-75
2022/10/01 06:16:17;;;;;;;15.65;8.80;;;;;;;20.79;100.00;100532.28;5060233;28;20091;-76
2022/10/01 06:18:42;;;;;;;22.33;10.20;;;;;;;21.32;100.00;100578.13;5055361;28;20072;-76
2022/10/01 06:21:08;;;;;;;27.85;11.38;;;;;;;21.27;100.00;100512.91;5071648;28;20559;-74
2022/10/01 06:23:35;;;;;;;20.70;9.30;;;;;;;21.21;100.00;100503.78;5071290;28;20040;-75
2022/10/01 06:26:04;;;;;;;25.27;10.30;;;;;;;20.97;100.00;100575.09;5071755;28;20047;-75
2022/10/01 06:28:30;;;;;;;20.83;10.80;;;;;;;20.86;100.00;100530.16;5073065;28;20033;-75
2022/10/01 06:30:56;;;;;;;18.58;9.25;;;;;;;21.47;100.00;100499.53;5072318;28;20032;-75
2022/10/01 06:33:21;;;;;;;18.00;8.18;;;;;;;21.74;100.00;100566.81;5071810;28;20506;-75
2022/10/01 06:35:49;;;;;;;25.70;9.23;;;;;;;22.17;100.00;100545.78;5072459;28;20082;-75
2022/10/01 06:38:17;;;;;;;15.27;7.93;;;;;;;22.54;100.00;100574.44;5072491;28;20058;-75
2022/10/01 06:40:42;;;;;;;15.00;8.10;;;;;;;22.54;100.00;100546.72;5071530;28;20475;-74
2022/10/01 06:43:08;;;;;;;17.50;8.75;;;;;;;22.38;100.00;100509.84;5067533;28;20029;-74
2022/10/01 06:45:39;;;;;;;14.23;7.18;;;;;;;22.60;100.00;100561.09;5067949;28;20513;-75
2022/10/01 06:48:05;;;;;;;16.30;7.55;;;;;;;22.97;100.00;100539.44;5070587;28;20097;-75
2022/10/01 06:50:31;;;;;;;14.38;7.65;;;;;;;22.65;100.00;100546.88;5071896;28;20487;-76
2022/10/01 06:52:57;;;;;;;12.80;7.10;;;;;;;23.27;100.00;100566.63;5072691;28;20036;-76
2022/10/01 06:55:25;;;;;;;14.88;7.60;;;;;;;23.08;100.00;100531.72;5072799;28;20067;-76
2022/10/01 06:57:57;;;;;;;12.50;6.60;;;;;;;23.62;100.00;100561.56;5087093;28;20036;-75
2022/10/01 07:00:23;;;;;;;12.90;7.57;;;;;;;22.49;100.00;100568.72;5087965;28;20113;-76
2022/10/01 07:02:49;;;;;;;14.80;7.20;;;;;;;22.74;100.00;100574.75;5072611;28;20089;-76
2022/10/01 07:05:15;;;;;;;15.00;7.75;;;;;;;23.37;100.00;100538.31;5072007;28;20032;-75
2022/10/01 07:07:40;;;;;;;8.88;6.65;;;;;;;23.69;100.00;100567.97;5070773;28;20135;-76
2022/10/01 07:10:08;;;;;;;9.80;6.40;;;;;;;23.65;100.00;100579.50;5071050;28;20037;-76
2022/10/01 07:12:35;;;;;;;9.23;5.63;;;;;;;23.55;100.00;100523.97;5070723;28;20494;-76
2022/10/01 07:15:01;;;;;;;8.88;6.07;;;;;;;23.16;100.00;100563.16;5070295;28;20494;-76
2022/10/01 07:17:26;;;;;;;11.35;6.65;;;;;;;23.12;100.00;100574.69;5070818;28;20047;-75
2022/10/01 07:19:52;;;;;;;9.10;6.43;;;;;;;23.65;100.00;100519.78;5071904;28;20024;-75
2022/10/01 07:22:18;;;;;;;11.90;6.25;;;;;;;23.89;100.00;100538.75;5071739;28;20047;-75
2022/10/01 07:24:46;;;;;;;10.90;6.15;;;;;;;23.72;100.00;100526.19;5071423;28;20495;-75
2022/10/01 07:27:13;;;;;;;10.23;6.20;;;;;;;24.39;100.00;100542.78;5071598;28;20562;-75
2022/10/01 07:29:40;;;;;;;13.20;6.30;;;;;;;24.25;100.00;100509.22;5071090;28;20556;-75
2022/10/01 07:32:07;;;;;;;11.30;5.82;;;;;;;24.91;100.00;100570.88;5069990;28;20119;-74
2022/10/01 07:34:34;;;;;;;12.13;6.13;;;;;;;24.58;100.00;100555.22;5071759;28;20544;-75
2022/10/01 07:37:00;;;;;;;10.77;5.88;;;;;;;25.42;100.00;100566.78;5071051;28;20115;-75
2022/10/01 07:39:25;;;;;;;9.50;6.05;;;;;;;25.03;100.00;100546.47;5070107;28;20542;-75
2022/10/01 07:41:51;;;;;;;11.68;5.90;;;;;;;24.69;100.00;100493.63;5069847;28;20037;-76
2022/10/01 07:44:18;;;;;;;10.05;5.88;;;;;;;25.10;100.00;100539.84;5087386;28;20043;-75
2022/10/01 07:46:43;;;;;;;8.80;5.45;;;;;;;25.40;100.00;100545.25;5070107;28;20560;-75
2022/10/01 07:49:09;;;;;;;8.90;5.40;;;;;;;24.74;100.00;100535.72;5070055;28;20040;-76
2022/10/01 07:51:35;;;;;;;14.45;5.90;;;;;;;25.62;100.00;100526.09;5070690;28;20031;-75
2022/10/01 07:54:02;;;;;;;10.57;6.20;;;;;;;25.22;100.00;100538.03;5071508;28;20438;-75
2022/10/01 07:56:28;;;;;;;7.65;5.60;;;;;;;25.46;100.00;100461.41;5071486;28;20036;-75
2022/10/01 07:58:57;;;;;;;13.07;5.68;;;;;;;25.53;100.00;100496.41;5069889;28;20136;-73
2022/10/01 08:01:24;;;;;;;13.68;6.22;;;;;;;25.50;100.00;100555.75;5059620;28;20036;-74
2022/10/01 08:03:51;;;;;;;11.52;6.25;;;;;;;25.55;100.00;100561.44;5066551;28;20083;-73
2022/10/01 08:06:17;;;;;;;13.40;6.35;;;;;;;25.73;100.00;100550.31;5051152;28;20029;-74
2022/10/01 08:08:43;;;;;;;9.73;5.93;;;;;;;24.86;100.00;100511.38;5069324;28;20059;-74
2022/10/01 08:11:12;;;;;;;12.55;6.60;;;;;;;26.67;100.00;100557.22;5069378;28;20483;-75
2022/10/01 08:13:38;;;;;;;10.35;5.50;;;;;;;24.56;100.00;100570.13;5069806;28;20024;-73
2022/10/01 08:16:06;;;;;;;11.30;6.15;;;;;;;25.32;100.00;100495.53;5068086;28;20052;-70
2022/10/01 08:18:32;;;;;;;11.05;5.32;;;;;;;26.01;100.00;100527.22;5069494;28;20474;-73
2022/10/01 08:21:00;;;;;;;12.70;5.55;;;;;;;26.43;100.00;100502.75;5069493;28;20131;-73
2022/10/01 08:23:27;;;;;;;12.98;6.18;;;;;;;25.66;100.00;100559.59;5070853;28;20024;-73
2022/10/01 08:26:01;;;;;;;8.25;5.53;;;;;;;25.81;100.00;100554.09;5069624;28;20040;-73
2022/10/01 08:28:28;;;;;;;9.75;5.55;;;;;;;26.26;100.00;100545.09;5070180;28;20426;-72
2022/10/01 08:30:54;;;;;;;11.70;5.90;;;;;;;27.24;100.00;100542.59;5070609;28;20031;-72
2022/10/01 08:33:20;;;;;;;11.95;5.88;;;;;;;25.74;100.00;100502.47;5070652;28;20024;-75
2022/10/01 08:35:46;;;;;;;10.68;5.75;;;;;;;26.91;100.00;100540.31;5069062;28;20040;-73
2022/10/01 08:38:11;;;;;;;10.75;4.90;;;;;;;25.89;100.00;100543.88;5068419;28;20028;-73
2022/10/01 08:40:49;;;;;;;11.18;5.30;;;;;;;26.22;100.00;100515.84;5069296;28;20025;-74
2022/10/01 08:43:28;;;;;;;9.88;5.28;;;;;;;27.34;99.38;100508.66;5069120;28;20039;-73
2022/10/01 08:45:57;;;;;;;7.28;4.82;;;;;;;25.89;99.80;100541.25;5073772;28;20028;-72
2022/10/01 08:48:42;;;;;;;12.52;5.68;;;;;;;26.79;96.18;100510.06;5074074;28;20128;-72
2022/10/01 08:51:33;;;;;;;9.45;5.50;;;;;;;27.84;90.84;100556.41;5073973;28;20040;-74
2022/10/01 08:54:20;;;;;;;11.23;5.43;;;;;;;26.18;100.00;100556.19;5067088;28;20041;-72
2022/10/01 08:56:46;;;;;;;9.40;5.70;;;;;;;27.82;84.95;100496.41;5074183;28;20471;-74
2022/10/01 08:59:35;;;;;;;25.52;20.65;;;;;;;28.16;86.47;100543.88;5072675;28;20546;-77
2022/10/01 09:02:00;;;;;;;12.70;5.90;;;;;;;27.24;90.16;100482.50;5063434;28;20127;-74
2022/10/01 09:04:27;;;;;;;9.75;5.78;;;;;;;28.05;86.91;100520.47;5073832;28;20182;-73
2022/10/01 09:07:20;;;;;;;15.23;6.32;;;;;;;28.20;87.42;100483.28;5072373;28;20517;-74
2022/10/01 09:09:59;;;;;;;12.90;6.20;;;;;;;27.50;83.65;100474.16;5071695;28;20024;-75
2022/10/01 09:12:27;;;;;;;42.50;36.97;;;;;;;27.43;91.92;100528.78;5074043;28;20107;-74
2022/10/01 09:15:05;;;;;;;23.50;15.80;;;;;;;28.34;90.96;100516.00;5073327;28;20124;-74
2022/10/01 09:18:00;;;;;;;12.65;6.65;;;;;;;28.14;85.96;100465.53;5073780;28;20029;-75
2022/10/01 09:20:33;;;;;;;11.70;6.47;;;;;;;27.91;87.65;100458.16;5072119;28;20029;-74
2022/10/01 09:23:22;;;;;;;11.80;6.93;;;;;;;28.63;88.23;100510.66;5072607;28;20043;-74
2022/10/01 09:25:49;;;;;;;12.43;6.93;;;;;;;28.08;87.43;100455.66;5073903;28;20103;-74
2022/10/01 09:28:19;;;;;;;15.98;7.10;;;;;;;28.66;87.26;100521.66;5071721;28;20032;-74
2022/10/01 09:31:03;;;;;;;11.88;7.25;;;;;;;29.04;83.87;100515.41;5071957;28;20036;-75
2022/10/01 09:33:33;;;;;;;13.52;7.65;;;;;;;28.70;83.91;100507.31;5071755;28;20032;-75
2022/10/01 09:36:01;;;;;;;14.40;7.03;;;;;;;28.79;87.80;100506.47;5058413;28;20040;-74
2022/10/01 09:38:35;;;;;;;14.63;7.63;;;;;;;29.64;77.79;100492.88;5068803;28;20032;-75
2022/10/01 09:41:01;;;;;;;13.23;7.30;;;;;;;29.63;77.93;100476.31;5051775;28;20112;-72
2022/10/01 09:43:29;;;;;;;10.88;6.72;;;;;;;28.63;80.74;100434.75;5054756;28;20115;-71
2022/10/01 09:45:56;;;;;;;12.57;6.22;;;;;;;28.85;78.68;100440.41;5073048;28;20035;-72
2022/10/01 09:48:45;;;;;;;10.70;5.50;;;;;;;28.91;73.78;100373.50;5072734;28;20086;-72
2022/10/01 09:51:16;;;;;;;11.02;5.88;;;;;;;29.18;76.24;100417.19;5071447;28;20043;-75
2022/10/01 09:54:13;;;;;;;10.02;5.65;;;;;;;29.30;77.04;100461.31;5071851;28;20123;-73
2022/10/01 09:56:44;;;;;;;10.57;4.80;;;;;;;29.42;71.46;100399.00;5065687;28;20044;-73
2022/10/01 09:59:49;;;;;;;11.73;5.20;;;;;;;29.94;71.87;100459.22;5069494;28;20036;-72
2022/10/01 10:02:40;;;;;;;10.93;5.32;;;;;;;30.13;68.47;100445.03;5055770;28;20033;-74
2022/10/01 10:05:26;;;;;;;9.13;4.67;;;;;;;29.93;67.24;100439.19;5056506;28;20045;-72
2022/10/01 10:07:57;;;;;;;10.50;4.70;;;;;;;29.21;70.57;100458.78;5065314;28;20427;-73
2022/10/01 10:10:38;;;;;;;7.55;4.20;;;;;;;30.78;63.04;100397.03;5072568;28;20036;-73
2022/10/01 10:13:37;;;;;;;8.02;4.22;;;;;;;29.15;65.53;100428.78;5072955;28;20024;-73
2022/10/01 10:16:32;;;;;;;5.72;4.35;;;;;;;30.36;61.77;100409.41;5072873;28;20032;-73
2022/10/01 10:19:09;;;;;;;9.23;4.00;;;;;;;29.57;64.24;100342.44;5062564;28;20040;-74
2022/10/01 10:21:36;;;;;;;6.85;4.28;;;;;;;30.09;62.35;100419.28;5071533;28;20482;-73
2022/10/01 10:24:44;;;;;;;5.07;3.78;;;;;;;29.60;60.45;100379.63;5070580;28;20052;-73
2022/10/01 10:27:28;;;;;;;8.50;4.30;;;;;;;28.67;70.68;100342.69;5082873;28;20086;-72
2022/10/01 10:30:15;;;;;;;7.82;4.30;;;;;;;29.00;77.24;100424.97;5080116;28;20103;-73
2022/10/01 10:32:43;;;;;;;7.43;4.43;;;;;;;29.15;73.69;100420.06;5091059;28;20024;-74
2022/10/01 10:35:15;;;;;;;8.73;4.65;;;;;;;29.04;74.51;100431.56;5092990;28;20502;-74
2022/10/01 10:37:48;;;;;;;6.30;4.20;;;;;;;29.44;69.59;100425.88;5087592;28;20032;-74
2022/10/01 10:40:19;;;;;;;9.27;4.18;;;;;;;28.27;73.34;100381.47;5071890;28;20032;-74
2022/10/01 10:42:52;;;;;;;7.20;4.60;;;;;;;29.23;70.95;100418.34;5072808;28;20029;-74
2022/10/01 10:45:21;;;;;;;10.07;4.63;;;;;;;29.10;69.50;100389.88;5072103;28;20047;-74
2022/10/01 10:47:52;;;;;;;8.88;4.57;;;;;;;29.20;70.79;100417.84;5071143;28;20036;-73
2022/10/01 10:50:39;;;;;;;7.00;4.15;;;;;;;28.72;70.61;100426.84;5071311;28;20418;-72
2022/10/01 10:53:18;;;;;;;7.45;4.45;;;;;;;28.45;75.81;100360.56;5070890;28;20039;-74
2022/10/01 10:56:15;;;;;;;7.57;5.10;;;;;;;28.64;73.99;100358.72;5072710;28;20024;-72
2022/10/01 10:58:41;;;;;;;5.82;4.53;;;;;;;28.17;76.43;100372.84;5062517;28;20041;-72
2022/10/01 11:01:17;;;;;;;10.20;4.60;;;;;;;28.40;75.54;100389.00;5070893;28;20036;-72
2022/10/01 11:03:47;;;;;;;9.05;5.00;;;;;;;28.42;74.14;100387.06;5073412;28;20035;-73
2022/10/01 11:06:14;;;;;;;7.93;5.10;;;;;;;28.70;75.50;100420.91;5069984;28;20437;-72
2022/10/01 11:08:41;;;;;;;8.52;4.90;;;;;;;28.39;75.10;100416.13;5071826;28;20039;-74
2022/10/01 11:11:26;;;;;;;9.45;5.18;;;;;;;28.37;78.93;100421.50;5072488;28;20028;-74
2022/10/01 11:14:22;;;;;;;8.63;5.18;;;;;;;28.37;76.96;100413.66;5088221;28;20063;-73
2022/10/01 11:16:59;;;;;;;9.38;5.47;;;;;;;28.07;75.59;100349.38;5070438;28;20081;-73
2022/10/01 11:19:39;;;;;;;9.93;5.35;;;;;;;28.25;76.27;100418.25;5063948;28;20033;-73
2022/10/01 11:22:30;;;;;;;12.70;5.90;;;;;;;28.54;84.18;100384.09;5071057;28;20396;-73
2022/10/01 11:24:59;;;;;;;9.48;5.95;;;;;;;28.33;77.49;100388.75;5070437;28;20614;-74
2022/10/01 11:28:02;;;;;;;12.77;5.93;;;;;;;28.55;75.96;100382.31;5070180;28;20105;-74
2022/10/01 11:31:00;;;;;;;11.85;6.72;;;;;;;28.62;73.96;100368.50;5086657;28;20126;-73